Time;durP1;ratioP1;P1;durP2;ratioP2;P2;SDS_P1;SDS_P2;PMS_P1;PMS_P2;Temp;Humidity;BMP_temperature;BMP_pressure;BME280_temperature;BME280_humidity;BME280_pressure;Samples;Min_cycle;Max_cycle;Signal;HPM_P1;HPM_P2
2022/04/29 00:00:44;;;;;;;7.82;2.65;;;;;;;15.50;62.79;100844.47;2103001;28;20055;-74
2022/04/29 00:02:07;;;;;;;11.20;3.17;;;;;;;15.49;62.66;100848.91;2094238;28;20143;-74
2022/04/29 00:03:29;;;;;;;9.32;3.15;;;;;;;15.45;62.61;100841.81;2099999;28;20580;-74
2022/04/29 00:04:52;;;;;;;14.18;2.85;;;;;;;15.44;62.64;100845.38;2094277;28;20057;-74
2022/04/29 00:06:15;;;;;;;14.80;4.15;;;;;;;15.46;62.59;100838.28;2102418;28;20044;-74
2022/04/29 00:07:39;;;;;;;13.15;3.25;;;;;;;15.46;62.52;100838.28;2101260;28;20036;-74
2022/04/29 00:09:02;;;;;;;19.48;3.53;;;;;;;15.47;62.51;100834.72;2093453;28;20040;-74
2022/04/29 00:10:24;;;;;;;11.38;3.58;;;;;;;15.46;62.54;100824.97;2091982;28;20040;-73
2022/04/29 00:11:47;;;;;;;13.93;3.35;;;;;;;15.46;62.50;100824.97;2102359;28;20097;-74
2022/04/29 00:13:13;;;;;;;9.20;3.00;;;;;;;15.46;62.50;100816.09;2102297;28;20055;-74
2022/04/29 00:14:34;;;;;;;11.75;3.10;;;;;;;15.45;62.47;100825.88;2101669;28;20040;-73
2022/04/29 00:15:57;;;;;;;10.48;3.05;;;;;;;15.44;62.59;100816.09;2100311;28;20577;-74
2022/04/29 00:17:19;;;;;;;9.55;2.88;;;;;;;15.42;62.66;100819.69;2102290;28;20032;-74
2022/04/29 00:18:42;;;;;;;14.07;4.13;;;;;;;15.40;62.69;100810.81;2096384;28;20676;-74
2022/04/29 00:20:06;;;;;;;10.38;2.97;;;;;;;15.40;62.76;100813.47;2091405;28;20048;-74
2022/04/29 00:21:28;;;;;;;10.00;3.67;;;;;;;15.42;62.61;100811.69;2099926;28;20101;-75
2022/04/29 00:22:51;;;;;;;14.32;3.17;;;;;;;15.42;62.66;100814.34;2102159;28;20112;-74
2022/04/29 00:24:16;;;;;;;4.80;2.15;;;;;;;15.42;62.61;100819.69;2096675;28;20048;-74
2022/04/29 00:25:38;;;;;;;11.82;3.90;;;;;;;15.37;62.52;100816.13;2098644;28;20039;-74
2022/04/29 00:27:01;;;;;;;13.50;3.42;;;;;;;15.35;62.66;100813.50;2093862;28;20172;-74
2022/04/29 00:28:24;;;;;;;11.50;3.10;;;;;;;15.33;62.54;100809.06;2099452;28;20047;-74
2022/04/29 00:29:46;;;;;;;5.85;2.88;;;;;;;15.32;62.64;100805.50;2093973;28;20049;-74
2022/04/29 00:31:08;;;;;;;12.82;3.42;;;;;;;15.30;62.62;100806.38;2098179;28;20059;-74
2022/04/29 00:32:31;;;;;;;9.60;2.63;;;;;;;15.27;62.76;100803.75;2093050;28;20105;-74
2022/04/29 00:33:54;;;;;;;10.68;4.28;;;;;;;15.26;62.78;100801.97;2092149;28;20068;-74
2022/04/29 00:35:17;;;;;;;11.73;3.30;;;;;;;15.27;62.72;100796.66;2091566;28;20040;-74
2022/04/29 00:36:39;;;;;;;8.93;3.22;;;;;;;15.30;62.74;100796.63;2083196;28;20504;-74
2022/04/29 00:38:02;;;;;;;20.67;3.65;;;;;;;15.32;62.62;100796.63;2082975;28;20056;-74
2022/04/29 00:39:27;;;;;;;9.07;2.88;;;;;;;15.34;62.47;100790.44;2094367;28;20093;-74
2022/04/29 00:40:50;;;;;;;10.35;3.15;;;;;;;15.30;62.43;100791.31;2100868;28;20055;-74
2022/04/29 00:42:12;;;;;;;11.27;3.10;;;;;;;15.27;62.42;100796.66;2093197;28;20134;-74
2022/04/29 00:43:35;;;;;;;9.63;3.03;;;;;;;15.23;62.59;100789.56;2091221;28;20045;-74
2022/04/29 00:44:57;;;;;;;8.93;2.95;;;;;;;15.19;62.59;100790.47;2091360;28;20432;-74
2022/04/29 00:46:20;;;;;;;12.73;3.38;;;;;;;15.17;62.77;100781.59;2097330;28;20488;-74
2022/04/29 00:47:43;;;;;;;11.88;3.13;;;;;;;15.18;62.69;100783.38;2093053;28;20135;-74
2022/04/29 00:49:07;;;;;;;12.30;3.60;;;;;;;15.20;62.69;100780.72;2091407;28;20787;-74
2022/04/29 00:50:31;;;;;;;9.02;3.83;;;;;;;15.22;62.52;100789.59;2094890;28;20139;-73
2022/04/29 00:51:52;;;;;;;9.20;3.30;;;;;;;15.18;62.56;100777.19;2096300;28;20055;-74
2022/04/29 00:53:18;;;;;;;5.75;2.88;;;;;;;15.18;62.64;100783.38;2101958;28;20078;-74
2022/04/29 00:54:44;;;;;;;11.77;2.83;;;;;;;15.16;62.61;100785.19;2096278;28;20052;-74
2022/04/29 00:56:06;;;;;;;15.00;3.40;;;;;;;15.15;62.63;100775.44;2088250;28;20049;-74
2022/04/29 00:57:32;;;;;;;9.25;2.80;;;;;;;15.16;62.56;100782.53;2091269;28;20060;-74
2022/04/29 00:59:04;;;;;;;5.97;2.67;;;;;;;15.14;62.57;100771.00;2098431;28;20422;-74
2022/04/29 01:00:27;;;;;;;12.07;3.10;;;;;;;15.11;62.63;100773.66;2093117;28;20143;-74
2022/04/29 01:01:52;;;;;;;13.75;3.08;;;;;;;15.11;62.60;100777.19;2096468;28;20147;-74
2022/04/29 01:03:16;;;;;;;10.57;3.28;;;;;;;15.07;62.67;100770.13;2085497;28;20456;-74
2022/04/29 01:04:48;;;;;;;11.45;3.05;;;;;;;15.06;62.77;100776.34;2090842;28;20133;-74
2022/04/29 01:06:11;;;;;;;8.70;3.08;;;;;;;15.04;62.70;100777.22;2090347;28;20076;-74
2022/04/29 01:07:35;;;;;;;12.15;2.60;;;;;;;15.04;62.77;100775.44;2091947;28;20032;-74
2022/04/29 01:08:59;;;;;;;9.93;2.90;;;;;;;15.03;62.71;100775.47;2093815;28;20055;-74
2022/04/29 01:10:24;;;;;;;11.15;2.85;;;;;;;14.99;62.75;100779.00;2091634;28;20059;-74
2022/04/29 01:11:47;;;;;;;10.82;4.30;;;;;;;14.94;62.88;100780.78;2093313;28;20047;-74
2022/04/29 01:13:10;;;;;;;13.10;3.08;;;;;;;14.90;62.97;100768.41;2092462;28;20087;-74
2022/04/29 01:14:36;;;;;;;11.30;3.28;;;;;;;14.90;63.14;100766.59;2083096;28;20145;-74
2022/04/29 01:15:58;;;;;;;11.18;2.80;;;;;;;14.90;63.09;100769.25;2093368;28;20488;-74
2022/04/29 01:17:22;;;;;;;15.30;3.80;;;;;;;14.93;63.05;100766.63;2091644;28;20051;-74
2022/04/29 01:18:46;;;;;;;16.08;4.15;;;;;;;14.97;62.92;100763.03;2087962;28;20071;-74
2022/04/29 01:20:11;;;;;;;7.78;2.70;;;;;;;15.00;62.75;100757.75;2096286;28;20539;-74
2022/04/29 01:21:34;;;;;;;14.48;2.90;;;;;;;15.02;62.53;100757.75;2094208;28;20044;-74
2022/04/29 01:22:59;;;;;;;11.57;3.28;;;;;;;15.03;62.57;100760.38;2096254;28;20057;-74
2022/04/29 01:24:22;;;;;;;13.95;3.42;;;;;;;15.02;62.47;100753.31;2094173;28;20048;-74
2022/04/29 01:25:45;;;;;;;13.45;3.20;;;;;;;15.02;62.42;100748.00;2085500;28;20053;-74
2022/04/29 01:27:12;;;;;;;6.97;2.67;;;;;;;15.04;62.43;100745.31;2095213;28;22410;-74
2022/04/29 01:28:38;;;;;;;10.27;2.72;;;;;;;15.05;62.50;100745.31;2094632;28;20044;-74
2022/04/29 01:30:03;;;;;;;17.63;3.72;;;;;;;15.07;62.52;100747.97;2091701;28;20643;-74
2022/04/29 01:31:31;;;;;;;11.70;3.00;;;;;;;15.10;62.58;100747.94;2094470;28;20075;-74
2022/04/29 01:32:57;;;;;;;9.65;3.00;;;;;;;15.09;62.52;100746.19;2098240;28;20136;-74
2022/04/29 01:34:20;;;;;;;11.18;3.45;;;;;;;15.06;62.74;100744.44;2096418;28;20098;-74
2022/04/29 01:35:43;;;;;;;14.85;4.05;;;;;;;15.06;62.87;100739.09;2093093;28;20612;-74
2022/04/29 01:37:08;;;;;;;13.23;4.07;;;;;;;15.10;62.79;100735.53;2094023;28;20044;-74
2022/04/29 01:38:32;;;;;;;11.93;3.47;;;;;;;15.13;62.77;100738.19;2086912;28;20134;-74
2022/04/29 01:39:56;;;;;;;11.95;3.17;;;;;;;15.11;62.77;100739.97;2087691;28;20513;-74
2022/04/29 01:41:19;;;;;;;12.85;3.05;;;;;;;15.11;62.90;100739.09;2092803;28;20048;-74
2022/04/29 01:42:41;;;;;;;11.35;3.15;;;;;;;15.09;62.96;100731.13;2085357;28;20080;-74
2022/04/29 01:44:03;;;;;;;8.32;2.50;;;;;;;15.08;63.05;100737.34;2092926;28;20415;-74
2022/04/29 01:45:25;;;;;;;8.55;2.75;;;;;;;15.09;63.06;100733.78;2092993;28;20045;-74
2022/04/29 01:47:08;;;;;;;8.07;3.03;;;;;;;15.09;62.98;100731.13;2083390;28;20100;-74
2022/04/29 01:48:50;;;;;;;10.43;2.72;;;;;;;15.09;62.86;100733.78;2098640;28;20053;-74
2022/04/29 01:50:30;;;;;;;6.35;2.10;;;;;;;15.10;62.99;100732.00;2106268;28;20051;-74
2022/04/29 01:51:56;;;;;;;8.95;3.13;;;;;;;15.11;62.86;100728.44;2094604;28;20044;-74
2022/04/29 01:53:19;;;;;;;9.77;3.33;;;;;;;15.13;62.74;100727.56;2093181;28;20095;-74
2022/04/29 01:54:43;;;;;;;8.20;3.20;;;;;;;15.17;62.78;100731.09;2087013;28;20144;-74
2022/04/29 01:56:06;;;;;;;10.57;2.97;;;;;;;15.19;62.72;100728.44;2101333;28;20056;-74
2022/04/29 01:57:29;;;;;;;9.27;3.13;;;;;;;15.21;62.65;100731.97;2097559;28;20067;-74
2022/04/29 01:58:51;;;;;;;9.63;2.75;;;;;;;15.22;62.69;100731.97;2095083;28;20055;-74
2022/04/29 02:00:17;;;;;;;9.25;2.47;;;;;;;15.24;62.67;100729.28;2091303;28;20051;-74
2022/04/29 02:01:45;;;;;;;11.48;2.90;;;;;;;15.24;62.76;100730.16;2089388;28;20144;-74
2022/04/29 02:03:07;;;;;;;7.95;3.15;;;;;;;15.24;62.84;100729.28;2095165;28;20079;-74
2022/04/29 02:04:30;;;;;;;8.88;3.60;;;;;;;15.26;62.84;100730.16;2089665;28;20151;-74
2022/04/29 02:05:53;;;;;;;9.77;4.25;;;;;;;15.23;63.00;100732.88;2084357;28;20060;-74
2022/04/29 02:07:15;;;;;;;11.48;3.72;;;;;;;15.26;63.04;100732.84;2084037;28;20033;-74
2022/04/29 02:08:39;;;;;;;14.25;3.55;;;;;;;15.31;63.19;100729.25;2099228;28;20503;-74
2022/04/29 02:10:04;;;;;;;10.55;2.88;;;;;;;15.34;63.18;100733.69;2090426;28;20143;-74
2022/04/29 02:11:29;;;;;;;12.73;2.83;;;;;;;15.36;63.00;100738.09;2097569;28;20049;-74
2022/04/29 02:13:08;;;;;;;9.60;2.72;;;;;;;15.39;62.88;100746.06;2096583;28;20097;-74
2022/04/29 02:14:47;;;;;;;11.68;3.38;;;;;;;15.40;62.81;100750.50;2096241;28;20147;-74
2022/04/29 02:16:12;;;;;;;11.77;3.30;;;;;;;15.38;62.85;100746.06;2084811;28;20448;-74
2022/04/29 02:17:37;;;;;;;6.97;2.53;;;;;;;15.38;63.00;100746.06;2084866;28;20041;-74
2022/04/29 02:19:00;;;;;;;10.20;3.35;;;;;;;15.38;62.88;100743.41;2093778;28;20068;-74
2022/04/29 02:20:24;;;;;;;8.15;2.78;;;;;;;15.36;62.96;100738.09;2099836;28;20040;-74
2022/04/29 02:21:47;;;;;;;10.40;3.00;;;;;;;15.36;62.95;100747.88;2095256;28;20106;-74
2022/04/29 02:23:09;;;;;;;9.35;2.72;;;;;;;15.31;63.11;100747.00;2103307;28;20086;-74
2022/04/29 02:24:34;;;;;;;14.38;3.83;;;;;;;15.26;63.31;100754.09;2095185;28;20123;-74
2022/04/29 02:25:58;;;;;;;7.70;2.90;;;;;;;15.24;63.49;100758.53;2097678;28;20044;-74
2022/04/29 02:27:21;;;;;;;7.63;2.22;;;;;;;15.26;63.68;100759.44;2095143;28;20048;-74
2022/04/29 02:28:44;;;;;;;10.07;2.70;;;;;;;15.32;63.60;100775.38;2093916;28;20056;-74
2022/04/29 02:30:07;;;;;;;8.55;3.20;;;;;;;15.37;63.41;100771.78;2092493;28;20048;-74
2022/04/29 02:31:30;;;;;;;14.48;2.78;;;;;;;15.41;63.52;100772.69;2095300;28;20080;-74
2022/04/29 02:32:53;;;;;;;14.18;2.97;;;;;;;15.43;63.51;100762.91;2100281;28;20047;-74
2022/04/29 02:34:14;;;;;;;8.60;3.25;;;;;;;15.44;63.61;100762.91;2094948;28;20045;-74
2022/04/29 02:35:36;;;;;;;9.27;2.78;;;;;;;15.43;63.66;100765.56;2090089;28;20044;-74
2022/04/29 02:36:59;;;;;;;5.97;2.80;;;;;;;15.43;63.81;100754.91;2100549;28;20044;-74
2022/04/29 02:38:22;;;;;;;7.88;3.13;;;;;;;15.45;63.80;100764.66;2094897;28;20033;-74
2022/04/29 02:39:43;;;;;;;11.02;3.50;;;;;;;15.49;63.72;100763.75;2094908;28;20080;-74
2022/04/29 02:41:07;;;;;;;7.22;3.03;;;;;;;15.51;63.69;100761.97;2091934;28;20415;-74
2022/04/29 02:42:30;;;;;;;11.32;2.97;;;;;;;15.54;63.59;100766.44;2092340;28;20052;-74
2022/04/29 02:43:53;;;;;;;9.90;2.92;;;;;;;15.55;63.72;100773.53;2092772;28;20037;-74
2022/04/29 02:45:16;;;;;;;10.15;3.15;;;;;;;15.54;63.83;100771.78;2100988;28;20055;-74
2022/04/29 02:48:20;;;;;;;9.82;2.35;;;;;;;15.56;64.00;100772.63;2095975;28;20049;-74
2022/04/29 02:49:44;;;;;;;7.32;2.83;;;;;;;15.60;63.93;100776.19;2085826;28;20570;-74
2022/04/29 02:51:07;;;;;;;9.40;3.20;;;;;;;15.57;63.95;100776.19;2092742;28;20048;-74
2022/04/29 02:52:29;;;;;;;18.88;3.90;;;;;;;15.57;64.10;100778.84;2091378;28;20036;-74
2022/04/29 02:53:52;;;;;;;9.07;3.25;;;;;;;15.55;64.24;100770.88;2086420;28;20060;-74
2022/04/29 02:55:14;;;;;;;8.77;4.03;;;;;;;15.54;64.25;100777.09;2095718;28;20453;-74
2022/04/29 02:57:00;;;;;;;15.10;4.00;;;;;;;15.55;64.26;100786.84;2097439;28;20052;-75
2022/04/29 02:58:42;;;;;;;8.82;3.38;;;;;;;15.54;64.30;100788.63;2104886;28;20048;-74
2022/04/29 03:00:06;;;;;;;11.93;2.85;;;;;;;15.56;64.26;100788.59;2085416;28;20413;-74
2022/04/29 03:01:29;;;;;;;14.23;3.83;;;;;;;15.57;64.42;100786.81;2090197;28;20036;-74
2022/04/29 03:02:51;;;;;;;12.35;3.60;;;;;;;15.59;64.46;100795.69;2094327;28;20543;-74
2022/04/29 03:04:15;;;;;;;10.82;3.15;;;;;;;15.61;64.60;100793.91;2086445;28;20052;-74
2022/04/29 03:05:38;;;;;;;8.27;3.25;;;;;;;15.63;64.62;100798.31;2092143;28;20647;-74
2022/04/29 03:07:00;;;;;;;11.93;4.20;;;;;;;15.65;64.48;100782.34;2089935;28;20052;-74
2022/04/29 03:08:24;;;;;;;9.30;3.58;;;;;;;15.66;64.48;100778.81;2093623;28;20459;-74
2022/04/29 03:09:48;;;;;;;11.13;2.80;;;;;;;15.64;64.48;100788.56;2091373;28;20059;-74
2022/04/29 03:11:11;;;;;;;12.52;3.03;;;;;;;15.60;64.61;100792.16;2085727;28;20091;-74
2022/04/29 03:12:34;;;;;;;11.57;3.17;;;;;;;15.57;64.79;100801.00;2083601;28;20032;-74
2022/04/29 03:14:09;;;;;;;8.70;2.88;;;;;;;15.47;65.08;100801.91;2086607;28;20064;-73
2022/04/29 03:15:33;;;;;;;9.95;3.30;;;;;;;15.38;65.26;100805.50;2099439;28;20036;-75
2022/04/29 03:16:55;;;;;;;10.45;2.88;;;;;;;15.37;65.69;100811.69;2101461;28;20067;-74
2022/04/29 03:18:20;;;;;;;10.98;2.80;;;;;;;15.40;65.65;100808.16;2093656;28;20551;-74
2022/04/29 03:19:43;;;;;;;11.48;3.63;;;;;;;15.46;65.69;100809.00;2091449;28;20052;-74
2022/04/29 03:21:06;;;;;;;16.42;3.92;;;;;;;15.56;65.67;100806.38;2093557;28;20109;-74
2022/04/29 03:22:29;;;;;;;12.45;3.58;;;;;;;15.60;65.73;100802.78;2092519;28;20113;-74
2022/04/29 03:23:52;;;;;;;11.55;3.35;;;;;;;15.64;65.78;100804.53;2096605;28;20130;-74
2022/04/29 03:25:14;;;;;;;9.32;3.13;;;;;;;15.63;65.66;100808.97;2100698;28;20091;-74
2022/04/29 03:26:37;;;;;;;13.25;2.97;;;;;;;15.59;65.67;100814.31;2105492;28;20059;-74
2022/04/29 03:28:02;;;;;;;16.88;3.40;;;;;;;15.53;65.78;100817.88;2088800;28;20090;-74
2022/04/29 03:29:25;;;;;;;10.77;2.95;;;;;;;15.46;66.04;100816.09;2092397;28;20516;-75
2022/04/29 03:30:47;;;;;;;9.60;3.22;;;;;;;15.42;66.42;100820.56;2092031;28;20147;-74
2022/04/29 03:32:10;;;;;;;13.40;3.40;;;;;;;15.46;66.44;100821.44;2091554;28;20083;-74
2022/04/29 03:33:52;;;;;;;8.00;2.85;;;;;;;15.54;66.41;100827.66;2104051;28;20068;-74
2022/04/29 03:35:13;;;;;;;15.32;3.67;;;;;;;15.59;66.36;100830.28;2085982;28;20080;-74
2022/04/29 03:36:36;;;;;;;10.38;3.95;;;;;;;15.63;66.24;100827.59;2086754;28;20060;-74
2022/04/29 03:38:00;;;;;;;12.32;3.88;;;;;;;15.67;66.23;100831.16;2099992;28;20496;-74
2022/04/29 03:39:23;;;;;;;10.10;4.05;;;;;;;15.68;66.24;100823.16;2102778;28;20048;-74
2022/04/29 03:40:46;;;;;;;11.57;3.38;;;;;;;15.72;66.37;100824.03;2096951;28;20059;-74
2022/04/29 03:42:10;;;;;;;9.50;4.38;;;;;;;15.76;66.32;100824.00;2091962;28;20151;-74
2022/04/29 03:43:34;;;;;;;8.02;3.22;;;;;;;15.80;66.21;100814.22;2091935;28;20370;-74
2022/04/29 03:44:57;;;;;;;12.20;3.70;;;;;;;15.82;66.12;100800.00;2091911;28;20060;-74
2022/04/29 03:46:20;;;;;;;15.10;3.53;;;;;;;15.84;66.10;100797.34;2090562;28;20065;-74
2022/04/29 03:48:18;;;;;;;11.35;4.15;;;;;;;15.86;66.01;100792.91;2087045;28;20044;-74
2022/04/29 03:50:03;;;;;;;9.38;3.25;;;;;;;15.87;66.11;100790.22;2083143;28;20535;-75
2022/04/29 03:51:32;;;;;;;14.48;3.03;;;;;;;15.85;66.16;100793.78;2092202;28;20432;-74
2022/04/29 03:52:56;;;;;;;6.13;3.35;;;;;;;15.78;66.30;100811.56;2093650;28;20048;-74
2022/04/29 03:54:18;;;;;;;6.97;3.15;;;;;;;15.77;66.62;100832.84;2094384;28;20048;-74
2022/04/29 03:55:54;;;;;;;11.68;3.30;;;;;;;15.83;66.80;100832.81;2096098;28;20099;-75
2022/04/29 03:57:17;;;;;;;12.27;3.72;;;;;;;15.94;66.72;100831.03;2091348;28;20085;-74
2022/04/29 03:58:42;;;;;;;7.93;2.58;;;;;;;16.05;66.93;100823.84;2102286;28;20040;-74
2022/04/29 04:00:06;;;;;;;12.73;3.33;;;;;;;16.12;66.95;100811.38;2093615;28;20080;-73
2022/04/29 04:01:39;;;;;;;8.43;3.05;;;;;;;16.14;66.78;100797.16;2095456;28;20400;-74
2022/04/29 04:03:05;;;;;;;9.68;3.55;;;;;;;16.11;66.86;100798.94;2103811;28;20126;-74
2022/04/29 04:04:28;;;;;;;11.70;3.22;;;;;;;16.07;66.95;100795.44;2096651;28;20059;-74
2022/04/29 04:07:28;;;;;;;7.60;2.75;;;;;;;15.94;67.26;100820.38;2095198;28;20069;-74
2022/04/29 04:09:02;;;;;;;12.23;3.08;;;;;;;15.95;67.34;100817.69;2091846;28;20045;-74
2022/04/29 04:10:26;;;;;;;9.43;3.40;;;;;;;16.04;67.30;100814.09;2091618;28;20535;-74
2022/04/29 04:11:48;;;;;;;20.58;4.68;;;;;;;16.14;67.25;100818.47;2093474;28;20044;-74
2022/04/29 04:13:26;;;;;;;8.60;3.20;;;;;;;16.23;67.07;100804.19;2095574;28;20094;-74
2022/04/29 04:15:05;;;;;;;9.20;3.10;;;;;;;16.30;66.81;100797.94;2092427;28;20056;-74
2022/04/29 04:16:35;;;;;;;10.15;3.58;;;;;;;16.28;66.95;100799.72;2093870;28;20056;-74
2022/04/29 04:17:59;;;;;;;6.82;3.30;;;;;;;16.24;67.14;100801.53;2102506;28;20052;-74
2022/04/29 04:19:23;;;;;;;9.57;3.22;;;;;;;16.22;67.33;100808.63;2093438;28;20516;-74
2022/04/29 04:20:48;;;;;;;17.35;3.25;;;;;;;16.23;67.43;100806.84;2089122;28;20132;-74
2022/04/29 04:22:11;;;;;;;10.98;4.05;;;;;;;16.30;67.40;100808.59;2093758;28;20032;-74
2022/04/29 04:23:33;;;;;;;9.40;3.88;;;;;;;16.39;67.45;100803.22;2098483;28;20488;-74
2022/04/29 04:25:00;;;;;;;14.70;4.30;;;;;;;16.48;67.28;100795.13;2094046;28;20051;-74
2022/04/29 04:26:22;;;;;;;17.63;4.18;;;;;;;16.52;67.30;100799.53;2085540;28;20064;-74
2022/04/29 04:27:45;;;;;;;9.63;3.28;;;;;;;16.58;67.27;100810.16;2084193;28;20391;-74
2022/04/29 04:29:09;;;;;;;10.25;3.88;;;;;;;16.64;67.22;100812.81;2105796;28;20551;-74
2022/04/29 04:30:40;;;;;;;15.30;3.63;;;;;;;16.73;67.08;100811.84;2090027;28;20575;-74
2022/04/29 04:32:03;;;;;;;8.38;3.50;;;;;;;16.78;67.12;100815.34;2102528;28;20081;-74
2022/04/29 04:33:26;;;;;;;13.15;4.30;;;;;;;16.85;67.03;100809.06;2091538;28;20051;-74
2022/04/29 04:34:51;;;;;;;13.52;3.78;;;;;;;16.89;67.08;100805.47;2093775;28;20118;-74
2022/04/29 04:36:13;;;;;;;13.57;3.45;;;;;;;16.96;67.09;100799.16;2094421;28;20460;-74
2022/04/29 04:37:36;;;;;;;14.60;3.55;;;;;;;17.02;67.13;100800.88;2084498;28;20044;-74
2022/04/29 04:39:00;;;;;;;8.38;3.38;;;;;;;17.03;67.34;100797.31;2091759;28;20463;-74
2022/04/29 04:40:23;;;;;;;10.43;3.28;;;;;;;17.03;67.36;100786.66;2083181;28;20548;-74
2022/04/29 04:41:46;;;;;;;10.60;3.75;;;;;;;17.06;67.43;100784.84;2083445;28;20147;-74
2022/04/29 04:43:11;;;;;;;7.15;3.47;;;;;;;17.16;67.44;100784.75;2083669;28;20468;-74
2022/04/29 04:44:35;;;;;;;9.95;3.83;;;;;;;17.24;67.34;100786.44;2090560;28;20076;-74
2022/04/29 04:45:59;;;;;;;10.75;3.45;;;;;;;17.27;67.38;100781.03;2091125;28;20048;-74
2022/04/29 04:47:25;;;;;;;9.70;3.35;;;;;;;17.36;67.30;100783.63;2095555;28;20129;-74
2022/04/29 04:49:25;;;;;;;12.25;3.13;;;;;;;17.49;67.07;100790.56;2096133;28;20400;-74
2022/04/29 04:50:53;;;;;;;13.13;2.78;;;;;;;17.52;66.84;100795.00;2095210;28;20071;-74
2022/04/29 04:52:16;;;;;;;13.32;3.88;;;;;;;17.45;66.81;100793.31;2101947;28;20105;-74
2022/04/29 04:53:39;;;;;;;11.85;2.78;;;;;;;17.37;66.99;100796.06;2096390;28;20075;-73
2022/04/29 04:55:06;;;;;;;16.02;3.83;;;;;;;17.30;67.08;100789.03;2087826;28;20043;-74
2022/04/29 04:56:29;;;;;;;10.82;2.65;;;;;;;17.24;67.24;100790.88;2094728;28;20056;-74
2022/04/29 04:57:52;;;;;;;8.45;2.58;;;;;;;17.22;67.42;100790.00;2091586;28;20059;-73
2022/04/29 04:59:15;;;;;;;10.27;2.38;;;;;;;17.19;67.37;100795.38;2089920;28;20052;-74
2022/04/29 05:00:39;;;;;;;9.35;3.65;;;;;;;17.14;67.47;100780.28;2085900;28;20509;-74
2022/04/29 05:02:32;;;;;;;11.85;3.33;;;;;;;17.09;67.56;100778.59;2091535;28;20508;-75
2022/04/29 05:04:17;;;;;;;16.45;3.38;;;;;;;17.05;67.67;100771.53;2079442;28;20054;-75
2022/04/29 05:05:57;;;;;;;5.45;2.50;;;;;;;17.03;67.75;100765.31;2096423;28;20045;-74
2022/04/29 05:07:19;;;;;;;8.70;2.47;;;;;;;17.02;67.84;100768.88;2093525;28;20040;-74
2022/04/29 05:08:42;;;;;;;14.45;3.83;;;;;;;17.05;67.83;100768.88;2089839;28;20753;-74
2022/04/29 05:10:06;;;;;;;14.35;4.07;;;;;;;17.10;67.70;100772.34;2090368;28;20431;-74
2022/04/29 05:11:29;;;;;;;10.13;2.92;;;;;;;17.16;67.57;100785.63;2093579;28;20064;-74
2022/04/29 05:12:54;;;;;;;12.90;3.92;;;;;;;17.24;67.47;100789.09;2093033;28;20396;-74
2022/04/29 05:14:23;;;;;;;9.80;3.60;;;;;;;17.34;67.41;100798.75;2088036;28;20041;-75
2022/04/29 05:15:46;;;;;;;15.10;3.15;;;;;;;17.42;67.31;100793.34;2092748;28;20465;-74
2022/04/29 05:17:18;;;;;;;;;;;;;;;17.52;67.19;100797.69;2094908;28;20105;-74
2022/04/29 05:19:02;;;;;;;12.93;3.67;;;;;;;17.59;67.04;100810.00;2098044;28;19920;-74
2022/04/29 05:20:24;;;;;;;14.55;4.00;;;;;;;17.67;67.07;100817.97;2087088;28;20077;-74
2022/04/29 05:21:47;;;;;;;11.23;3.03;;;;;;;17.76;67.07;100825.88;2093126;28;20508;-74
2022/04/29 05:23:10;;;;;;;13.48;4.25;;;;;;;17.87;67.21;100827.50;2092626;28;20128;-74
2022/04/29 05:24:56;;;;;;;9.18;3.42;;;;;;;18.03;67.01;100835.31;2079117;28;20064;-74
2022/04/29 05:26:37;;;;;;;11.68;3.33;;;;;;;18.14;66.82;100839.59;2100708;28;20542;-74
2022/04/29 05:28:18;;;;;;;22.65;4.50;;;;;;;18.30;66.77;100856.31;2105901;28;20044;-75
2022/04/29 05:30:00;;;;;;;12.65;3.55;;;;;;;18.53;66.37;100853.25;2106074;28;20064;-74
2022/04/29 05:31:49;;;;;;;9.85;3.25;;;;;;;18.78;66.05;100852.00;2090608;28;20059;-74
2022/04/29 05:33:30;;;;;;;14.98;3.28;;;;;;;18.96;65.67;100845.47;2097802;28;20074;-74
2022/04/29 05:35:18;;;;;;;10.70;3.40;;;;;;;19.22;65.49;100853.03;2069125;28;20609;-74
2022/04/29 05:36:59;;;;;;;12.98;3.10;;;;;;;19.53;65.02;100851.56;2106011;28;20135;-74
2022/04/29 05:42:18;;;;;;;12.63;3.60;;;;;;;21.24;61.87;100870.00;2097743;28;20060;-74
2022/04/29 05:43:40;;;;;;;11.23;3.83;;;;;;;21.56;60.88;100867.31;2100784;28;20179;-74
2022/04/29 05:45:06;;;;;;;11.20;3.53;;;;;;;21.82;60.44;100871.97;2092624;28;20103;-75
2022/04/29 05:46:27;;;;;;;12.32;3.95;;;;;;;22.09;59.89;100876.56;2092964;28;20048;-75
2022/04/29 05:47:49;;;;;;;10.52;4.00;;;;;;;22.36;59.48;100882.03;2088168;28;20159;-75
2022/04/29 05:49:12;;;;;;;11.02;3.42;;;;;;;22.53;59.04;100893.13;2091864;28;20072;-74
2022/04/29 05:50:41;;;;;;;13.15;3.45;;;;;;;22.76;58.63;100911.31;2095180;28;20071;-76
2022/04/29 05:52:05;;;;;;;12.93;3.38;;;;;;;22.98;58.18;100913.22;2102430;28;20051;-75
2022/04/29 05:53:30;;;;;;;16.05;4.53;;;;;;;23.14;57.84;100915.41;2087185;28;20440;-75
2022/04/29 05:54:59;;;;;;;20.10;5.10;;;;;;;23.31;57.88;100913.00;2086107;28;20096;-75
2022/04/29 05:56:26;;;;;;;19.90;4.20;;;;;;;23.35;57.82;100893.13;2085613;28;20129;-75
2022/04/29 05:57:48;;;;;;;13.75;3.92;;;;;;;23.42;57.81;100892.88;2089821;28;20129;-75
2022/04/29 05:59:11;;;;;;;14.38;4.57;;;;;;;23.46;57.53;100888.25;2091703;28;20444;-75
2022/04/29 06:00:53;;;;;;;15.82;3.97;;;;;;;23.48;57.58;100875.63;2088440;28;20564;-75
2022/04/29 06:02:15;;;;;;;24.05;5.60;;;;;;;23.60;57.75;100882.38;2076673;28;20128;-75
2022/04/29 06:03:58;;;;;;;;;;;;;;;23.79;57.26;100886.19;2087630;28;20144;-75
2022/04/29 06:05:20;;;;;;;13.20;4.97;;;;;;;23.99;57.10;100880.91;2077623;28;19921;-75
2022/04/29 06:06:45;;;;;;;11.50;3.33;;;;;;;24.15;56.37;100886.63;2074453;28;20057;-75
2022/04/29 06:08:08;;;;;;;10.27;3.10;;;;;;;24.32;55.84;100886.88;2069711;28;20107;-75
2022/04/29 06:09:36;;;;;;;14.93;3.92;;;;;;;24.53;55.29;100885.16;2075700;28;20049;-75
2022/04/29 06:10:59;;;;;;;13.77;3.85;;;;;;;24.72;54.78;100886.16;2072173;28;20057;-75
2022/04/29 06:12:22;;;;;;;12.30;3.08;;;;;;;24.85;54.17;100873.03;2081498;28;20139;-76
2022/04/29 06:13:44;;;;;;;15.38;2.97;;;;;;;25.02;53.74;100879.50;2081104;28;20076;-75
2022/04/29 06:15:26;;;;;;;16.25;4.88;;;;;;;24.97;53.87;100877.94;2085083;28;20041;-76
2022/04/29 06:17:04;;;;;;;16.40;4.13;;;;;;;25.07;53.25;100873.06;2088860;28;20432;-76
2022/04/29 06:18:45;;;;;;;20.45;3.63;;;;;;;25.04;53.16;100859.66;2085515;28;20509;-76
2022/04/29 06:20:36;;;;;;;22.15;5.60;;;;;;;24.48;53.79;100863.72;2082400;28;20061;-76
2022/04/29 06:22:36;;;;;;;21.58;4.07;;;;;;;23.86;54.58;100863.44;2083763;28;20079;-76
2022/04/29 06:23:59;;;;;;;17.60;3.47;;;;;;;23.45;54.87;100860.41;2076818;28;20095;-76
2022/04/29 06:25:21;;;;;;;15.98;3.28;;;;;;;23.23;55.49;100861.25;2070318;28;20106;-75
2022/04/29 06:26:45;;;;;;;10.82;3.55;;;;;;;23.14;55.77;100866.94;2069992;28;20192;-76
2022/04/29 06:28:08;;;;;;;11.05;3.33;;;;;;;23.25;55.77;100867.44;2063594;28;20045;-75
2022/04/29 06:29:31;;;;;;;13.13;3.25;;;;;;;23.52;55.70;100869.19;2069421;28;20049;-75
2022/04/29 06:30:55;;;;;;;13.32;3.83;;;;;;;23.84;55.13;100873.38;2078735;28;20532;-76
2022/04/29 06:32:40;;;;;;;15.85;3.70;;;;;;;24.12;54.63;100868.72;2085238;28;20693;-76
2022/04/29 06:34:17;;;;;;;8.73;2.85;;;;;;;24.31;53.97;100868.91;2082834;28;20045;-75
2022/04/29 06:35:42;;;;;;;8.38;2.80;;;;;;;24.54;52.89;100873.41;2077999;28;20053;-76
2022/04/29 06:37:06;;;;;;;11.93;3.45;;;;;;;24.85;52.13;100864.94;2074219;28;20553;-76
2022/04/29 06:38:35;;;;;;;17.25;3.47;;;;;;;25.15;51.47;100858.25;2074531;28;20456;-76
2022/04/29 06:40:18;;;;;;;12.48;3.47;;;;;;;25.37;50.85;100860.91;2088300;28;20140;-77
2022/04/29 06:41:51;;;;;;;17.20;4.50;;;;;;;25.58;50.42;100869.94;2070907;28;20050;-76
2022/04/29 06:43:36;;;;;;;14.15;3.90;;;;;;;25.81;49.90;100883.28;2080812;28;20775;-76
2022/04/29 06:45:25;;;;;;;12.85;3.08;;;;;;;25.96;49.08;100885.28;2072979;28;20492;-76
2022/04/29 06:47:07;;;;;;;15.38;3.08;;;;;;;26.09;48.42;100886.47;2092472;28;20580;-76